»·PEaware :: WAT397 KSBA-KSBP

WAT397 :: KSBA-KSBP

FLIGHT INFORMATION

Flight Status: Arrived
Operator:
Walker Air Transport
More flights by this operator :: More flights under this callsign
Pilot: Ricardo M. (29263)
Aircraft: PIPER PA-44 SEMINOLE
(PA44)
More flights by this aircraft type
Origin: KSBA Santa Barbara Mun
United States
Destination: KSBP San Luis Co Regl
United States
More flights between these airports :: More routes between these airports
Route: GVO V27 MQO
File this flight plan on PilotEdge
Remarks:
Altitude:
(Current/Filed)
6,000ft
Speed:
(Current/Filed)
250kts
Departed: 22-Feb-21 02:47 PM
Arrived: 22-Feb-21 03:26 PM
Distance/Time
Traveled:
63nm/0:39
Distance/Time
To Go:
Arrived

Flight Plot

Page will automatically refresh every two minutes.


Map Options




Map Legend


Flown Route
Filed Route
Departure Airport
Arrival Airport
Navaid (VOR, NDB)
Fix

Horizontal Profiles

Position Reports

Time Latitude Longitude Heading Altitude Ground
Speed
22-Feb-21 14:34 34.422519 -119.835861 163 12ft 0kts
22-Feb-21 14:35 34.422519 -119.835861 163 12ft 0kts
22-Feb-21 14:36 34.422519 -119.835861 163 12ft 0kts
22-Feb-21 14:37 34.422519 -119.835861 163 12ft 0kts
22-Feb-21 14:38 34.422519 -119.835861 163 12ft 0kts
22-Feb-21 14:39 34.422519 -119.835861 163 12ft 0kts
22-Feb-21 14:40 34.422519 -119.835861 163 12ft 0kts
22-Feb-21 14:41 34.422519 -119.835861 163 12ft 0kts
22-Feb-21 14:42 34.422519 -119.835861 163 12ft 0kts
22-Feb-21 14:43 34.422360 -119.836525 300 12ft 15kts
22-Feb-21 14:44 34.426585 -119.838232 23 13ft 22kts
22-Feb-21 14:45 34.427616 -119.834890 337 12ft 14kts
22-Feb-21 14:46 34.427846 -119.855825 265 861ft 118kts
22-Feb-21 14:47 34.423130 -119.898714 263 2854ft 154kts
22-Feb-21 14:48 34.417537 -119.950794 263 3990ft 154kts
22-Feb-21 14:49 34.412346 -120.001966 263 5182ft 152kts
22-Feb-21 14:50 34.407214 -120.052904 263 6365ft 151kts
22-Feb-21 14:51 34.401748 -120.108205 266 6030ft 164kts
22-Feb-21 14:52 34.430426 -120.146477 322 6020ft 157kts
22-Feb-21 14:53 34.465893 -120.177905 339 6005ft 158kts
22-Feb-21 14:54 34.505785 -120.199654 334 6014ft 157kts
22-Feb-21 14:55 34.544474 -120.224882 330 6023ft 157kts
22-Feb-21 14:56 34.582103 -120.251841 327 6031ft 157kts
22-Feb-21 14:57 34.619209 -120.279662 327 6033ft 156kts
22-Feb-21 14:58 34.656089 -120.307453 327 6024ft 156kts
22-Feb-21 14:59 34.693808 -120.335866 327 6060ft 163kts
22-Feb-21 15:00 34.732711 -120.365230 327 6072ft 165kts
22-Feb-21 15:01 34.771945 -120.394809 328 6058ft 168kts
22-Feb-21 15:02 34.812105 -120.425095 328 6056ft 170kts
22-Feb-21 15:03 34.852371 -120.455578 327 6023ft 170kts
22-Feb-21 15:04 34.892600 -120.486040 327 6015ft 170kts
22-Feb-21 15:05 34.932754 -120.516489 327 6022ft 170kts
22-Feb-21 15:06 34.972968 -120.546933 327 6037ft 170kts
22-Feb-21 15:07 35.013328 -120.577605 327 6036ft 170kts
22-Feb-21 15:08 35.053356 -120.608009 327 5882ft 170kts
22-Feb-21 15:09 35.094027 -120.638946 327 4893ft 173kts
22-Feb-21 15:10 35.134969 -120.670087 328 3986ft 170kts
22-Feb-21 15:11 35.173713 -120.699600 328 3955ft 161kts
22-Feb-21 15:12 35.211804 -120.728671 328 3980ft 161kts
22-Feb-21 15:13 35.249358 -120.759169 304 3977ft 163kts
22-Feb-21 15:14 35.259956 -120.812229 282 3995ft 161kts
22-Feb-21 15:15 35.292405 -120.849691 321 4001ft 162kts
22-Feb-21 15:16 35.298548 -120.889562 190 3914ft 152kts
22-Feb-21 15:17 35.269340 -120.857667 110 3723ft 158kts
22-Feb-21 15:18 35.258800 -120.804867 98 2955ft 159kts
22-Feb-21 15:19 35.251626 -120.754350 97 2870ft 148kts
22-Feb-21 15:20 35.246252 -120.703214 96 1907ft 150kts
22-Feb-21 15:21 35.233765 -120.657328 122 1504ft 133kts
22-Feb-21 15:22 35.213116 -120.621249 123 1494ft 126kts
22-Feb-21 15:23 35.224116 -120.618611 304 586ft 71kts
22-Feb-21 15:24 35.235835 -120.638437 305 201ft 55kts
22-Feb-21 15:25 35.237172 -120.638817 124 197ft 34kts

Navigation Log

Ident Type
Flight plan parsing failed, navigation log unavailable